Time;durP1;ratioP1;P1;durP2;ratioP2;P2;SDS_P1;SDS_P2;PMS_P1;PMS_P2;Temp;Humidity;BMP_temperature;BMP_pressure;BME280_temperature;BME280_humidity;BME280_pressure;Samples;Min_cycle;Max_cycle;Signal;HPM_P1;HPM_P2
2022/11/01 00:05:01;;;;;;;15.98;6.57;;;;;;;;;;10602383;27;20061;-78
2022/11/01 00:10:24;;;;;;;13.60;5.97;;;;;;;;;;10587378;27;20043;-79
2022/11/01 00:15:44;;;;;;;13.45;5.47;;;;;;;;;;10559152;28;20073;-78
2022/11/01 00:20:56;;;;;;;15.45;5.22;;;;;;;;;;10598875;27;20050;-78
2022/11/01 00:26:07;;;;;;;11.32;4.20;;;;;;;;;;10592032;27;20142;-80
2022/11/01 00:31:26;;;;;;;14.70;5.55;;;;;;;;;;10598579;27;20051;-80
2022/11/01 00:42:08;;;;;;;13.70;4.35;;;;;;;;;;10565541;28;19926;-79
2022/11/01 00:47:26;;;;;;;16.92;5.70;;;;;;;;;;10580538;27;20047;-79
2022/11/01 00:52:35;;;;;;;9.45;4.45;;;;;;;;;;10575799;28;20454;-79
2022/11/01 00:57:51;;;;;;;12.70;5.28;;;;;;;;;;10578497;27;20506;-79
2022/11/01 01:03:06;;;;;;;10.05;5.03;;;;;;;;;;10617330;27;20250;-80
2022/11/01 01:08:11;;;;;;;10.53;4.43;;;;;;;;;;10614715;27;20063;-79
2022/11/01 01:19:13;;;;;;;10.07;4.68;;;;;;;;;;10591848;27;20063;-79
2022/11/01 01:24:59;;;;;;;9.23;4.75;;;;;;;;;;10583258;27;20070;-79
2022/11/01 01:30:07;;;;;;;;;;;;;;;;;;10586764;28;20052;-77
2022/11/01 01:35:25;;;;;;;11.48;3.78;;;;;;;;;;10613383;28;20354;-78
2022/11/01 01:41:54;;;;;;;9.10;3.40;;;;;;;;;;10607211;28;20034;-78
2022/11/01 01:46:27;;;;;;;8.75;4.18;;;;;;;;;;10596461;28;20048;-77
2022/11/01 01:51:42;;;;;;;11.10;4.53;;;;;;;;;;10590525;28;20519;-78
2022/11/01 02:07:35;;;;;;;8.43;3.72;;;;;;;;;;10600947;27;20039;-78
2022/11/01 02:12:45;;;;;;;8.70;3.87;;;;;;;;;;10563802;28;20043;-78
2022/11/01 02:18:05;;;;;;;10.38;4.53;;;;;;;;;;10607285;27;20499;-80
2022/11/01 02:23:46;;;;;;;7.93;3.13;;;;;;;;;;10583479;27;20035;-78
2022/11/01 02:29:16;;;;;;;11.35;3.70;;;;;;;;;;10605322;27;20131;-79
2022/11/01 02:34:35;;;;;;;8.82;2.63;;;;;;;;;;10584349;27;20088;-79
2022/11/01 02:39:43;;;;;;;11.40;3.42;;;;;;;;;;10622036;27;20150;-78
2022/11/01 02:44:59;;;;;;;7.03;3.08;;;;;;;;;;10616663;27;20130;-79
2022/11/01 02:50:23;;;;;;;6.88;2.60;;;;;;;;;;10591701;27;20044;-79
2022/11/01 02:55:44;;;;;;;9.52;2.88;;;;;;;;;;10586732;27;20074;-78
2022/11/01 03:00:50;;;;;;;14.35;4.10;;;;;;;;;;10565127;27;20038;-79
2022/11/01 03:06:15;;;;;;;9.18;2.92;;;;;;;;;;10610844;27;20067;-79
2022/11/01 03:11:27;;;;;;;8.38;3.17;;;;;;;;;;10562846;28;20050;-79
2022/11/01 03:16:42;;;;;;;13.13;3.28;;;;;;;;;;10606364;27;20043;-78
2022/11/01 03:22:18;;;;;;;14.48;3.80;;;;;;;;;;10586739;28;20052;-78
2022/11/01 03:27:44;;;;;;;9.48;3.60;;;;;;;;;;10615280;27;20119;-76
2022/11/01 03:32:54;;;;;;;11.75;4.38;;;;;;;;;;10607252;27;20074;-77
2022/11/01 03:38:03;;;;;;;9.85;3.50;;;;;;;;;;10615857;27;20044;-78
2022/11/01 03:43:12;;;;;;;8.90;3.30;;;;;;;;;;10579038;28;20043;-79
2022/11/01 03:48:26;;;;;;;9.32;3.53;;;;;;;;;;10595426;27;20131;-80
2022/11/01 03:53:47;;;;;;;10.05;3.97;;;;;;;;;;10562618;27;20453;-77
2022/11/01 04:04:15;;;;;;;8.23;3.30;;;;;;;;;;10599334;27;20496;-80
2022/11/01 04:09:41;;;;;;;10.63;2.90;;;;;;;;;;10600731;27;20132;-78
2022/11/01 04:25:35;;;;;;;9.30;3.20;;;;;;;;;;10599439;27;20050;-78
2022/11/01 04:30:50;;;;;;;5.90;3.25;;;;;;;;;;10598519;27;20438;-80
2022/11/01 04:41:27;;;;;;;11.75;3.95;;;;;;;;;;10593432;27;20056;-78
2022/11/01 04:46:56;;;;;;;6.63;3.42;;;;;;;;;;10587553;27;20476;-78
2022/11/01 04:52:17;;;;;;;11.70;4.05;;;;;;;;;;10576361;28;20405;-78
2022/11/01 04:57:30;;;;;;;8.82;3.20;;;;;;;;;;10587761;27;20040;-79
2022/11/01 05:02:40;;;;;;;8.98;3.45;;;;;;;;;;10595975;27;20401;-78
2022/11/01 05:07:52;;;;;;;10.18;3.28;;;;;;;;;;10608950;27;20043;-80
2022/11/01 05:13:14;;;;;;;6.85;2.97;;;;;;;;;;10575722;28;20573;-78
2022/11/01 05:18:31;;;;;;;9.88;3.10;;;;;;;;;;10608883;27;20035;-78
2022/11/01 05:23:52;;;;;;;28.55;3.42;;;;;;;;;;10610581;27;20480;-78
2022/11/01 05:29:15;;;;;;;8.45;2.72;;;;;;;;;;10595247;27;20062;-78
2022/11/01 05:34:35;;;;;;;8.63;3.25;;;;;;;;;;10596803;27;20556;-79
2022/11/01 05:39:43;;;;;;;8.77;3.10;;;;;;;;;;10599538;28;20089;-78
2022/11/01 05:45:11;;;;;;;5.35;2.92;;;;;;;;;;10560897;28;20067;-79
2022/11/01 05:50:24;;;;;;;6.75;3.22;;;;;;;;;;10608605;28;20072;-79
2022/11/01 05:55:37;;;;;;;7.40;3.88;;;;;;;;;;10592349;28;20051;-78
2022/11/01 06:01:00;;;;;;;8.18;2.92;;;;;;;;;;10606642;28;20057;-79
2022/11/01 06:06:13;;;;;;;6.95;2.80;;;;;;;;;;10616036;28;20070;-80
2022/11/01 06:11:28;;;;;;;8.98;3.00;;;;;;;;;;10565072;28;20059;-80
2022/11/01 06:16:59;;;;;;;7.75;2.92;;;;;;;;;;10588560;28;20031;-79
2022/11/01 06:22:10;;;;;;;7.50;2.38;;;;;;;;;;10567748;28;20048;-78
2022/11/01 06:33:11;;;;;;;6.28;2.53;;;;;;;;;;10602008;28;20121;-79
2022/11/01 06:38:19;;;;;;;7.43;3.13;;;;;;;;;;10613891;28;20126;-80
2022/11/01 06:43:28;;;;;;;5.45;1.92;;;;;;;;;;10573248;28;20088;-78
2022/11/01 06:48:31;;;;;;;6.30;3.05;;;;;;;;;;10604303;27;20035;-79
2022/11/01 06:53:38;;;;;;;8.23;3.08;;;;;;;;;;10561997;28;20055;-79
2022/11/01 06:58:51;;;;;;;4.90;2.55;;;;;;;;;;10612457;27;20059;-79
2022/11/01 07:04:08;;;;;;;10.27;2.40;;;;;;;;;;10613192;27;20496;-79
2022/11/01 07:09:35;;;;;;;4.32;2.60;;;;;;;;;;10603641;27;20040;-79
2022/11/01 07:15:03;;;;;;;9.07;2.28;;;;;;;;;;10559626;28;20059;-79
2022/11/01 07:20:23;;;;;;;8.98;2.95;;;;;;;;;;10598534;27;20063;-79
2022/11/01 07:25:31;;;;;;;3.60;1.65;;;;;;;;;;10616658;27;20134;-79
2022/11/01 07:30:38;;;;;;;5.80;2.67;;;;;;;;;;10603021;27;20031;-80
2022/11/01 07:35:45;;;;;;;7.47;3.70;;;;;;;;;;10593157;27;20051;-79
2022/11/01 07:41:15;;;;;;;8.07;2.08;;;;;;;;;;10598311;27;20150;-79
2022/11/01 07:47:07;;;;;;;5.38;2.10;;;;;;;;;;10570631;27;20122;-79
2022/11/01 07:52:28;;;;;;;6.43;2.30;;;;;;;;;;10586509;27;20036;-79
2022/11/01 07:57:45;;;;;;;3.92;2.13;;;;;;;;;;10572880;27;20042;-78
2022/11/01 08:03:11;;;;;;;7.30;2.80;;;;;;;;;;10618748;27;20043;-80
2022/11/01 08:08:26;;;;;;;6.50;2.40;;;;;;;;;;10591725;27;20040;-79
2022/11/01 08:13:35;;;;;;;7.47;2.55;;;;;;;;;;10579723;27;20035;-80
2022/11/01 08:18:46;;;;;;;8.20;2.50;;;;;;;;;;10573202;28;20108;-80
2022/11/01 08:29:46;;;;;;;3.10;1.58;;;;;;;;;;10587763;27;20581;-80
2022/11/01 08:34:54;;;;;;;8.60;2.60;;;;;;;;;;10595959;27;20533;-79
2022/11/01 08:39:59;;;;;;;8.38;3.30;;;;;;;;;;10620570;27;20035;-80
2022/11/01 08:45:07;;;;;;;7.35;2.20;;;;;;;;;;10592966;27;20047;-80
2022/11/01 08:50:13;;;;;;;8.27;3.35;;;;;;;;;;10576756;28;20218;-79
2022/11/01 08:55:27;;;;;;;9.95;3.35;;;;;;;;;;10592650;27;20044;-79
2022/11/01 09:00:40;;;;;;;12.43;3.55;;;;;;;;;;10594763;27;20035;-78
2022/11/01 09:05:59;;;;;;;9.48;3.50;;;;;;;;;;10598364;27;20038;-80
2022/11/01 09:16:36;;;;;;;14.93;3.60;;;;;;;;;;10610060;27;20046;-79
2022/11/01 09:21:47;;;;;;;6.47;2.75;;;;;;;;;;10587915;27;20051;-78
2022/11/01 09:27:06;;;;;;;13.15;3.17;;;;;;;;;;10583732;27;20054;-80
2022/11/01 09:32:24;;;;;;;11.45;3.05;;;;;;;;;;10595884;27;20042;-79
2022/11/01 09:37:37;;;;;;;8.48;2.70;;;;;;;;;;10590837;28;20047;-79
2022/11/01 09:43:01;;;;;;;4.53;2.15;;;;;;;;;;10577241;28;20036;-79
2022/11/01 09:48:18;;;;;;;6.53;2.60;;;;;;;;;;10599218;28;20062;-78
2022/11/01 09:53:26;;;;;;;9.65;2.53;;;;;;;;;;10574350;28;20043;-78
2022/11/01 09:59:01;;;;;;;2.08;1.52;;;;;;;;;;10581954;28;20042;-78
2022/11/01 10:04:30;;;;;;;10.13;2.47;;;;;;;;;;10614452;28;20031;-79
2022/11/01 10:09:52;;;;;;;7.40;2.28;;;;;;;;;;10596065;28;20097;-79
2022/11/01 10:15:32;;;;;;;2.67;1.63;;;;;;;;;;10576154;28;20104;-79
2022/11/01 10:20:40;;;;;;;2.75;1.55;;;;;;;;;;10612807;27;20039;-79
2022/11/01 10:25:53;;;;;;;6.10;2.60;;;;;;;;;;10621640;27;20050;-78
2022/11/01 10:31:07;;;;;;;7.65;1.83;;;;;;;;;;10609957;27;20103;-78
2022/11/01 10:36:17;;;;;;;6.43;1.92;;;;;;;;;;10614753;27;20090;-78
2022/11/01 10:41:41;;;;;;;4.53;1.70;;;;;;;;;;10617136;27;20035;-78
2022/11/01 10:46:52;;;;;;;6.45;1.77;;;;;;;;;;10597514;27;20462;-80
2022/11/01 10:52:04;;;;;;;4.00;1.75;;;;;;;;;;10592889;27;20137;-79
2022/11/01 10:57:31;;;;;;;3.38;1.67;;;;;;;;;;10597656;27;20206;-79
2022/11/01 11:08:15;;;;;;;4.60;2.05;;;;;;;;;;10584280;27;20006;-79
2022/11/01 11:13:34;;;;;;;9.38;1.80;;;;;;;;;;10614828;27;20456;-80
2022/11/01 11:19:01;;;;;;;2.90;1.52;;;;;;;;;;10601581;27;20421;-80
2022/11/01 11:24:18;;;;;;;3.20;1.70;;;;;;;;;;10592647;27;20103;-77
2022/11/01 11:29:37;;;;;;;4.63;2.03;;;;;;;;;;10584393;27;20141;-79
2022/11/01 11:34:48;;;;;;;7.07;2.40;;;;;;;;;;10582809;27;20047;-79
2022/11/01 11:40:12;;;;;;;7.28;1.65;;;;;;;;;;10607083;27;20071;-79
2022/11/01 11:45:27;;;;;;;8.00;1.92;;;;;;;;;;10616580;27;20135;-78
2022/11/01 11:50:38;;;;;;;4.75;1.63;;;;;;;;;;10602868;27;20082;-78
2022/11/01 11:55:47;;;;;;;4.10;1.70;;;;;;;;;;10616389;27;20480;-79
2022/11/01 12:00:54;;;;;;;6.07;2.10;;;;;;;;;;10593101;27;20043;-79
2022/11/01 12:11:40;;;;;;;4.07;1.70;;;;;;;;;;10622590;27;20146;-78
2022/11/01 12:22:19;;;;;;;1.03;0.67;;;;;;;;;;10581213;27;20063;-79
2022/11/01 12:27:34;;;;;;;3.80;1.35;;;;;;;;;;10587091;27;20105;-79
2022/11/01 12:33:09;;;;;;;6.80;1.58;;;;;;;;;;10598087;27;20138;-78
2022/11/01 12:38:37;;;;;;;4.15;1.10;;;;;;;;;;10614739;27;20059;-78
2022/11/01 12:43:50;;;;;;;4.28;1.30;;;;;;;;;;10577000;28;20096;-79
2022/11/01 12:49:04;;;;;;;3.38;1.25;;;;;;;;;;10574503;27;20039;-79
2022/11/01 12:54:15;;;;;;;2.25;1.08;;;;;;;;;;10576106;27;20036;-79
2022/11/01 12:59:44;;;;;;;6.40;1.27;;;;;;;;;;10602706;27;20046;-79
2022/11/01 13:05:03;;;;;;;4.20;1.30;;;;;;;;;;10556689;28;20043;-79
2022/11/01 13:10:16;;;;;;;3.53;1.50;;;;;;;;;;10593012;27;20047;-80
2022/11/01 13:15:28;;;;;;;2.15;1.20;;;;;;;;;;10591669;27;20481;-79
2022/11/01 13:20:44;;;;;;;4.68;1.60;;;;;;;;;;10562797;28;20111;-78
2022/11/01 13:25:53;;;;;;;5.72;1.80;;;;;;;;;;10594212;27;20040;-78
2022/11/01 13:31:22;;;;;;;3.08;1.67;;;;;;;;;;10585480;27;20046;-77
2022/11/01 13:36:34;;;;;;;4.20;1.75;;;;;;;;;;10593826;28;20089;-77
2022/11/01 13:41:56;;;;;;;5.95;1.90;;;;;;;;;;10592857;28;20040;-77
2022/11/01 13:47:32;;;;;;;3.38;1.40;;;;;;;;;;10590146;28;20055;-79
2022/11/01 13:52:49;;;;;;;5.18;1.67;;;;;;;;;;10474763;28;20206;-77
2022/11/01 13:58:02;;;;;;;5.30;1.70;;;;;;;;;;10611435;27;20172;-79
2022/11/01 14:03:18;;;;;;;3.90;1.70;;;;;;;;;;10623142;27;20063;-77
2022/11/01 14:08:34;;;;;;;2.67;1.23;;;;;;;;;;10600612;27;20051;-78
2022/11/01 14:13:50;;;;;;;4.43;1.95;;;;;;;;;;10582240;28;20047;-78
2022/11/01 14:30:01;;;;;;;3.67;1.60;;;;;;;;;;10590682;27;20093;-78
2022/11/01 14:35:21;;;;;;;5.72;1.80;;;;;;;;;;10588072;27;20039;-78
2022/11/01 14:40:33;;;;;;;3.03;1.50;;;;;;;;;;10614841;27;20078;-77
2022/11/01 14:45:45;;;;;;;3.13;1.00;;;;;;;;;;10617276;27;20051;-78
2022/11/01 14:50:56;;;;;;;3.63;1.30;;;;;;;;;;10584455;27;20413;-78
2022/11/01 14:56:11;;;;;;;3.20;1.45;;;;;;;;;;10597616;27;20539;-80
2022/11/01 15:01:22;;;;;;;6.85;1.50;;;;;;;;;;10614692;27;20060;-78
2022/11/01 15:06:33;;;;;;;4.25;1.25;;;;;;;;;;10628864;27;20069;-78
2022/11/01 15:11:42;;;;;;;3.00;1.38;;;;;;;;;;10594698;27;20044;-78
2022/11/01 15:16:56;;;;;;;7.65;1.60;;;;;;;;;;10588452;27;20039;-79
2022/11/01 15:22:02;;;;;;;5.78;1.33;;;;;;;;;;10572327;28;20035;-78
2022/11/01 15:27:09;;;;;;;4.97;1.50;;;;;;;;;;10605339;27;20159;-79
2022/11/01 15:32:40;;;;;;;2.88;1.33;;;;;;;;;;10598820;27;20040;-79
2022/11/01 15:37:52;;;;;;;4.03;1.33;;;;;;;;;;10616443;27;20043;-78
2022/11/01 15:43:07;;;;;;;;;;;;;;;;;;10601325;27;20195;-78
2022/11/01 15:48:14;;;;;;;7.13;1.63;;;;;;;;;;10596507;27;19926;-79
2022/11/01 15:53:33;;;;;;;1.33;0.70;;;;;;;;;;10588025;27;20043;-78
2022/11/01 15:58:38;;;;;;;16.48;5.90;;;;;;;;;;10594947;27;20424;-77
2022/11/01 16:03:45;;;;;;;4.75;1.83;;;;;;;;;;10618271;27;20412;-78
2022/11/01 16:09:23;;;;;;;5.68;1.50;;;;;;;;;;10613238;27;20035;-79
2022/11/01 16:14:34;;;;;;;3.97;1.60;;;;;;;;;;10577939;28;20051;-78
2022/11/01 16:20:06;;;;;;;3.70;1.70;;;;;;;;;;10594129;27;20074;-79
2022/11/01 16:25:38;;;;;;;5.05;1.73;;;;;;;;;;10568415;27;20405;-78
2022/11/01 16:30:44;;;;;;;6.03;1.90;;;;;;;;;;10567959;28;20074;-80
2022/11/01 16:35:47;;;;;;;7.18;2.40;;;;;;;;;;10568706;28;20048;-79
2022/11/01 16:40:54;;;;;;;4.32;1.67;;;;;;;;;;10569373;28;20156;-79
2022/11/01 16:45:57;;;;;;;6.30;2.05;;;;;;;;;;10564735;28;20488;-78
2022/11/01 16:51:01;;;;;;;5.75;1.98;;;;;;;;;;10567687;28;20040;-78
2022/11/01 16:56:07;;;;;;;6.07;1.70;;;;;;;;;;10564805;28;20124;-78
2022/11/01 17:01:29;;;;;;;9.27;2.50;;;;;;;;;;10563291;28;20082;-78
2022/11/01 17:06:37;;;;;;;8.10;2.90;;;;;;;;;;10558841;28;20044;-79
2022/11/01 17:11:40;;;;;;;;;;;;;;;;;;10567398;28;20093;-78
2022/11/01 17:16:50;;;;;;;5.00;1.90;;;;;;;;;;10560839;28;19947;-78
2022/11/01 17:21:52;;;;;;;3.28;1.70;;;;;;;;;;10562030;28;20044;-78
2022/11/01 17:26:57;;;;;;;5.30;2.25;;;;;;;;;;10560245;28;20056;-79
2022/11/01 17:32:03;;;;;;;7.63;2.20;;;;;;;;;;10566588;28;20047;-79
2022/11/01 17:37:05;;;;;;;5.93;2.28;;;;;;;;;;10535105;28;20040;-79
2022/11/01 17:42:08;;;;;;;8.60;2.53;;;;;;;;;;10539278;28;20500;-78
2022/11/01 17:47:14;;;;;;;8.55;2.75;;;;;;;;;;10536079;28;20044;-78
2022/11/01 17:52:17;;;;;;;7.00;2.28;;;;;;;;;;10538282;28;20043;-79
2022/11/01 17:57:19;;;;;;;5.50;2.63;;;;;;;;;;10529527;28;20094;-79
2022/11/01 18:02:23;;;;;;;7.00;2.20;;;;;;;;;;10540437;28;20044;-81
2022/11/01 18:07:27;;;;;;;7.10;2.40;;;;;;;;;;10542056;28;20044;-78
2022/11/01 18:12:33;;;;;;;3.42;1.73;;;;;;;;;;10542683;28;20036;-77
2022/11/01 18:17:46;;;;;;;7.95;2.80;;;;;;;;;;10541629;28;20044;-78
2022/11/01 18:22:54;;;;;;;5.38;2.33;;;;;;;;;;10540321;28;20075;-78
2022/11/01 18:27:59;;;;;;;8.75;2.78;;;;;;;;;;10526466;28;20052;-78
2022/11/01 18:33:07;;;;;;;13.40;3.97;;;;;;;;;;10535780;28;20402;-78
2022/11/01 18:38:13;;;;;;;6.90;2.70;;;;;;;;;;10531973;28;20185;-78
2022/11/01 18:43:20;;;;;;;7.90;2.83;;;;;;;;;;10528772;28;20498;-78
2022/11/01 18:48:24;;;;;;;5.70;2.35;;;;;;;;;;10526459;28;20101;-80
2022/11/01 18:53:28;;;;;;;5.68;2.30;;;;;;;;;;10526804;28;20033;-78
2022/11/01 18:58:32;;;;;;;5.57;2.03;;;;;;;;;;10529259;28;20036;-77
2022/11/01 19:03:36;;;;;;;6.32;2.30;;;;;;;;;;10534222;28;20051;-78
2022/11/01 19:08:39;;;;;;;8.43;2.50;;;;;;;;;;10534441;28;20036;-78
2022/11/01 19:13:46;;;;;;;6.22;2.20;;;;;;;;;;10531475;28;20054;-78
2022/11/01 19:18:51;;;;;;;6.32;2.75;;;;;;;;;;10530171;28;20554;-78
2022/11/01 19:23:54;;;;;;;4.68;2.10;;;;;;;;;;10532671;28;20032;-77
2022/11/01 19:28:57;;;;;;;5.07;2.22;;;;;;;;;;10528634;28;20044;-78
2022/11/01 19:34:02;;;;;;;6.07;3.03;;;;;;;;;;10533145;28;20048;-79
2022/11/01 19:39:16;;;;;;;8.18;2.80;;;;;;;;;;10532072;28;20057;-78
2022/11/01 19:44:21;;;;;;;5.18;2.40;;;;;;;;;;10533081;28;20058;-79
2022/11/01 19:49:26;;;;;;;6.57;2.88;;;;;;;;;;10530711;28;20457;-79
2022/11/01 19:54:34;;;;;;;7.72;3.17;;;;;;;;;;10526097;28;20040;-79
2022/11/01 19:59:37;;;;;;;4.40;1.75;;;;;;;;;;10532579;28;20117;-78
2022/11/01 20:04:41;;;;;;;9.57;2.77;;;;;;;;;;10534818;28;20082;-79
2022/11/01 20:09:46;;;;;;;8.57;3.47;;;;;;;;;;10530886;28;20451;-78
2022/11/01 20:14:50;;;;;;;6.72;2.47;;;;;;;;;;10532984;28;20044;-80
2022/11/01 20:19:55;;;;;;;8.90;2.97;;;;;;;;;;10531714;28;20040;-78
2022/11/01 20:25:01;;;;;;;7.95;3.00;;;;;;;;;;10533127;28;20044;-79
2022/11/01 20:30:06;;;;;;;7.13;2.95;;;;;;;;;;10526572;28;20051;-79
2022/11/01 20:35:11;;;;;;;7.60;2.70;;;;;;;;;;10531533;28;20032;-79
2022/11/01 20:40:16;;;;;;;8.70;3.47;;;;;;;;;;10523798;28;20056;-79
2022/11/01 20:45:20;;;;;;;5.68;2.78;;;;;;;;;;10531672;28;20040;-80
2022/11/01 20:50:25;;;;;;;7.95;3.78;;;;;;;;;;10533210;28;20074;-80
2022/11/01 20:55:28;;;;;;;12.07;3.30;;;;;;;;;;10525978;28;20106;-78
2022/11/01 21:00:31;;;;;;;8.07;3.37;;;;;;;;;;10529212;28;20119;-78
2022/11/01 21:05:36;;;;;;;7.63;3.03;;;;;;;;;;10538849;28;20077;-79
2022/11/01 21:10:40;;;;;;;6.18;2.92;;;;;;;;;;10537697;28;20298;-79
2022/11/01 21:15:44;;;;;;;9.45;3.50;;;;;;;;;;10539798;28;20051;-78
2022/11/01 21:20:49;;;;;;;9.98;3.05;;;;;;;;;;10545380;28;20142;-79
2022/11/01 21:25:53;;;;;;;8.15;3.17;;;;;;;;;;10535245;28;20052;-79
2022/11/01 21:30:56;;;;;;;;;;;;;;;;;;10531569;28;20048;-78
2022/11/01 21:36:00;;;;;;;9.65;3.28;;;;;;;;;;10538743;28;19920;-78
2022/11/01 21:41:21;;;;;;;6.43;3.10;;;;;;;;;;10530726;28;20043;-78
2022/11/01 21:46:25;;;;;;;10.68;3.20;;;;;;;;;;10537222;28;20063;-78
2022/11/01 21:51:31;;;;;;;5.70;2.47;;;;;;;;;;10536403;28;20052;-78
2022/11/01 21:56:33;;;;;;;6.40;2.80;;;;;;;;;;10536408;28;20094;-79
2022/11/01 22:01:36;;;;;;;6.53;2.60;;;;;;;;;;10534950;28;20528;-77
2022/11/01 22:06:41;;;;;;;5.47;2.45;;;;;;;;;;10536345;28;20098;-78
2022/11/01 22:11:44;;;;;;;3.65;1.77;;;;;;;;;;10537129;28;20110;-78
2022/11/01 22:16:46;;;;;;;10.55;2.75;;;;;;;;;;10536438;28;20032;-78
2022/11/01 22:21:50;;;;;;;10.90;3.15;;;;;;;;;;10537169;28;20052;-78
2022/11/01 22:26:53;;;;;;;8.05;3.20;;;;;;;;;;10527889;28;20416;-78
2022/11/01 22:31:56;;;;;;;8.23;2.20;;;;;;;;;;10534560;28;20235;-79
2022/11/01 22:37:00;;;;;;;9.05;2.63;;;;;;;;;;10508318;28;20036;-78
2022/11/01 22:42:06;;;;;;;8.65;2.63;;;;;;;;;;10535860;28;20093;-78
2022/11/01 22:47:09;;;;;;;9.55;2.55;;;;;;;;;;10532846;28;20089;-78
2022/11/01 22:52:18;;;;;;;3.97;2.13;;;;;;;;;;10530796;28;20044;-78
2022/11/01 22:57:22;;;;;;;7.40;2.60;;;;;;;;;;10521642;28;20565;-79
2022/11/01 23:02:26;;;;;;;7.93;2.72;;;;;;;;;;10536238;28;20052;-79
2022/11/01 23:07:33;;;;;;;7.82;2.78;;;;;;;;;;10535445;28;20401;-78
2022/11/01 23:18:01;;;;;;;8.43;2.70;;;;;;;;;;10528828;28;20456;-79
2022/11/01 23:23:06;;;;;;;5.78;2.47;;;;;;;;;;10534989;28;20040;-78
2022/11/01 23:28:09;;;;;;;7.03;2.58;;;;;;;;;;10524797;28;20493;-78
2022/11/01 23:33:12;;;;;;;3.45;1.92;;;;;;;;;;10535162;28;20055;-78
2022/11/01 23:38:18;;;;;;;7.38;2.75;;;;;;;;;;10527897;28;20721;-78
2022/11/01 23:43:22;;;;;;;5.57;2.10;;;;;;;;;;10534430;28;20032;-78
2022/11/01 23:48:25;;;;;;;5.50;2.20;;;;;;;;;;10526361;28;20093;-79
2022/11/01 23:53:31;;;;;;;9.80;2.63;;;;;;;;;;10528189;28;20286;-78
2022/11/01 23:58:34;;;;;;;3.22;1.73;;;;;;;;;;10535143;28;20048;-78
